This is the latest recevied weather packets stored in our database for station/object OH2HCY. If no packets are shown the sender has not sent any weather packets the latest 10 day(s).
| Time | Temp. | Humidity | Pressure | Rain* | Wind** | Luminosity | Snow |
|---|---|---|---|---|---|---|---|
| 1777669380 | 11.11° C | 56% | 1011.4 hPa | - | - | - | - |
| 1777668345 | 11.67° C | 53% | 1011.3 hPa | - | - | - | - |
| 1777667820 | 12.22° C | 52% | 1011.2 hPa | - | - | - | - |
| 1777667250 | 12.22° C | 50% | 1011 hPa | - | - | - | - |
| 1777666200 | 13.33° C | 42% | 1010.5 hPa | - | - | - | - |
| 1777665645 | 13.89° C | 41% | 1010.5 hPa | - | - | - | - |
| 1777665080 | 13.89° C | 41% | 1010.4 hPa | - | - | - | - |
| 1777664545 | 14.44° C | 41% | 1010.3 hPa | - | - | - | - |
| 1777664040 | 14.44° C | 40% | 1010.3 hPa | - | - | - | - |
| 1777663520 | 14.44° C | 40% | 1010.3 hPa | - | - | - | - |
| 1777662955 | 15° C | 39% | 1010.2 hPa | - | - | - | - |
| 1777662425 | 15° C | 39% | 1010.2 hPa | - | - | - | - |
| 1777661375 | 15.56° C | 40% | 1010 hPa | - | - | - | - |
| 1777660865 | 15.56° C | 41% | 1009.9 hPa | - | - | - | - |
| 1777660333 | 16.11° C | 42% | 1009.8 hPa | - | - | - | - |
| 1777659775 | 16.67° C | 42% | 1009.7 hPa | - | - | - | - |
| 1777659230 | 16.67° C | 42% | 1009.4 hPa | - | - | - | - |
| 1777658687 | 17.22° C | 42% | 1009.2 hPa | - | - | - | - |
| 1777658150 | 17.78° C | 41% | 1009 hPa | - | - | - | - |
| 1777657650 | 17.78° C | 40% | 1008.8 hPa | - | - | - | - |
| 1777657095 | 18.33° C | 39% | 1008.6 hPa | - | - | - | - |
| 1777656051 | 18.89° C | 39% | 1008.4 hPa | - | - | - | - |
| 1777655490 | 18.89° C | 41% | 1008.3 hPa | - | - | - | - |
| 1777654925 | 18.89° C | 40% | 1008.2 hPa | - | - | - | - |
| 1777652795 | 21.11° C | 25% | 1007.4 hPa | - | - | - | - |
* Rain since midnight (hover to see other rain measurements)
** Current wind speed in m/s (hover to see current wind gust speed)